MST,Max TemperatureF,Mean TemperatureF,Min TemperatureF,Max Dew PointF,MeanDew PointF,Min DewpointF,Max Humidity, Mean Humidity, Min Humidity, Max Sea Level PressureIn, Mean Sea Level PressureIn, Min Sea Level PressureIn, Max VisibilityMiles, Mean VisibilityMiles, Min VisibilityMiles, Max Wind SpeedMPH, Mean Wind SpeedMPH, Max Gust SpeedMPH,PrecipitationIn, CloudCover, Events, WindDirDegrees
2012-1-1,50,40,30,22,18,14,64,45,25,30.59,30.52,30.37,10,9,3,6,1,,0.00,0,,342
2012-1-2,48,39,30,21,17,15,61,43,26,30.66,30.56,30.48,10,9,5,7,1,,0.00,0,,348
2012-1-3,46,38,30,20,18,16,64,48,29,30.53,30.46,30.38,10,9,3,5,1,,0.00,0,,232
2012-1-4,48,38,28,24,21,19,69,54,36,30.62,30.53,30.47,10,8,2,5,1,,0.00,0,,357
2012-1-5,48,38,28,24,22,20,69,53,34,30.48,30.32,30.13,10,9,5,5,1,,0.00,0,,353
2012-1-6,50,40,30,25,23,21,72,54,38,30.20,30.09,29.99,10,9,5,6,1,,0.00,0,,32
2012-1-7,54,42,30,24,22,19,69,48,25,30.07,29.97,29.88,10,10,8,8,2,,0.00,2,,284
2012-1-8,50,42,35,19,13,9,45,33,19,30.28,30.15,30.06,10,10,4,9,6,17,0.00,0,,304
2012-1-9,46,38,30,20,17,13,57,43,30,30.38,30.30,30.24,10,9,4,7,2,,0.00,0,,23
2012-1-10,48,39,30,22,21,19,64,49,33,30.27,30.16,30.05,10,10,6,5,1,,0.00,0,,354
2012-1-11,54,43,32,24,16,4,61,40,13,30.19,30.10,30.03,10,10,9,8,1,,0.00,0,,310
2012-1-12,45,38,30,10,9,6,43,33,21,30.30,30.23,30.18,10,10,8,7,1,,0.00,0,,90
2012-1-13,45,35,25,14,10,6,58,38,20,30.42,30.35,30.27,10,9,5,4,0,,0.00,0,,140
2012-1-14,48,37,26,13,10,8,55,37,21,30.44,30.33,30.20,10,9,5,4,1,,0.00,0,,258
2012-1-15,46,38,30,26,13,9,49,36,23,30.18,30.04,29.89,10,10,8,5,1,,0.00,2,,274
2012-1-16,53,45,37,29,22,14,60,41,24,30.08,29.86,29.75,10,10,8,16,6,28,0.00,4,Rain,262
2012-1-17,44,36,27,16,14,9,61,42,27,30.30,30.20,30.06,10,9,3,6,2,,0.00,1,,31
2012-1-18,51,40,28,21,19,15,64,44,29,30.28,30.19,30.11,10,10,7,7,1,,0.00,0,,122
2012-1-19,50,42,35,21,18,16,48,39,26,30.12,30.01,29.90,10,9,7,4,1,,0.00,0,,153
2012-1-20,57,46,36,20,15,10,45,31,16,30.05,29.96,29.90,10,10,5,6,3,,0.00,1,,117
2012-1-21,51,45,39,41,27,15,81,54,36,29.92,29.70,29.51,10,8,1,24,5,40,0.19,6,Rain-Thunderstorm,262
2012-1-22,46,41,36,25,21,18,62,45,32,30.11,30.01,29.78,10,10,9,10,7,30,0.00,1,,269
2012-1-23,39,36,33,34,30,24,93,82,62,30.08,29.94,29.87,10,5,0,5,1,,0.12,7,Fog-Snow,298
2012-1-24,50,42,33,33,29,23,89,69,38,30.29,30.10,29.93,10,9,4,5,1,,0.00,2,,283
2012-1-25,48,40,32,24,21,18,66,49,29,30.40,30.32,30.27,10,10,2,5,2,,0.00,0,,142
2012-1-26,51,42,33,29,26,23,70,55,39,30.30,30.15,29.97,10,10,8,6,1,,0.00,0,,90
2012-1-27,53,44,35,31,19,8,68,37,16,30.35,30.15,29.99,10,10,9,10,4,16,0.00,1,,313
2012-1-28,46,37,28,16,11,4,54,36,18,30.52,30.45,30.33,10,10,5,6,1,,0.00,0,,73
2012-1-29,46,37,28,16,12,6,58,37,19,30.50,30.38,30.24,10,9,5,5,1,,0.00,0,,284
2012-1-30,50,40,30,19,16,12,56,41,23,30.21,30.09,29.98,10,9,2,6,1,,0.00,0,,292
2012-1-31,51,44,36,22,20,18,52,42,27,30.18,30.08,30.00,10,9,4,5,2,,0.00,0,,1